Keytesville, Missouri
Current Conditions -  °F | °C
As of 8:55 AM on Monday 24 Nov 2014 (Local Time) from KMHL Reporting Station
Overcast Overcast  
Wind Chill: -3°   Ceiling: 3100
Heat Index:   Visibility: 10mi
Dew Point: -1°   Wind: 14mph
Humidity: 81%   Direction: 260°W
Pressure: 29.65"   Gusts: 18mph
Location:  39.43°N, 92.94°W
Report Text: KMHL 241455Z AUTO 26012G16KT 10SM BKN031 OVC038 02/M01 A2965 RMK AO2
Loading
Personal Weather Stations






























Interactive Weather Map New forecast layout! Learn more

10-Day Weather Forecast

Advertisements
Track Severe Weather on mobile